createdAt,value
2023-05-05T00:01:55.206Z,100.00
2023-05-05T00:04:28.240Z,100.00
2023-05-05T00:07:01.078Z,100.00
2023-05-05T00:09:33.949Z,100.00
2023-05-05T00:12:07.399Z,100.00
2023-05-05T00:14:40.134Z,100.00
2023-05-05T00:17:15.484Z,100.00
2023-05-05T00:19:48.366Z,100.00
2023-05-05T00:22:21.526Z,100.00
2023-05-05T00:24:54.416Z,100.00
2023-05-05T00:27:27.190Z,100.00
2023-05-05T00:30:00.046Z,100.00
2023-05-05T00:32:34.250Z,100.00
2023-05-05T00:35:07.342Z,100.00
2023-05-05T00:37:40.235Z,100.00
2023-05-05T00:40:13.404Z,100.00
2023-05-05T00:42:47.411Z,100.00
2023-05-05T00:45:21.235Z,100.00
2023-05-05T00:47:57.496Z,100.00
2023-05-05T00:50:31.143Z,100.00
2023-05-05T00:53:05.004Z,100.00
2023-05-05T00:55:37.904Z,100.00
2023-05-05T00:58:10.661Z,100.00
2023-05-05T01:00:43.399Z,100.00
2023-05-05T01:03:17.903Z,100.00
2023-05-05T01:05:56.904Z,100.00
2023-05-05T01:08:33.927Z,100.00
2023-05-05T01:11:13.192Z,100.00
2023-05-05T01:13:51.143Z,100.00
2023-05-05T01:16:26.411Z,100.00
2023-05-05T01:19:07.914Z,100.00
2023-05-05T01:21:42.504Z,100.00
2023-05-05T01:24:36.844Z,100.00
2023-05-05T01:27:30.907Z,100.00
2023-05-05T01:30:09.818Z,100.00
2023-05-05T01:32:48.416Z,100.00
2023-05-05T01:35:28.201Z,100.00
2023-05-05T01:38:05.558Z,100.00
2023-05-05T01:40:40.309Z,100.00
2023-05-05T01:43:13.446Z,100.00
2023-05-05T01:45:47.993Z,100.00
2023-05-05T01:48:23.710Z,100.00
2023-05-05T01:50:56.841Z,100.00
2023-05-05T01:53:30.318Z,100.00
2023-05-05T01:56:03.974Z,100.00
2023-05-05T01:58:38.639Z,100.00
2023-05-05T02:01:12.346Z,100.00
2023-05-05T02:03:48.014Z,100.00
2023-05-05T02:06:22.435Z,100.00
2023-05-05T02:08:55.630Z,100.00
2023-05-05T02:11:29.184Z,100.00
2023-05-05T02:14:02.428Z,100.00
2023-05-05T02:16:36.656Z,100.00
2023-05-05T02:19:12.307Z,100.00
2023-05-05T02:21:45.292Z,100.00
2023-05-05T02:24:18.043Z,100.00
2023-05-05T02:26:51.436Z,100.00
2023-05-05T02:29:27.228Z,100.00
2023-05-05T02:32:06.231Z,100.00
2023-05-05T02:34:41.246Z,100.00
2023-05-05T02:37:16.866Z,100.00
2023-05-05T02:39:58.476Z,100.00
2023-05-05T02:42:35.163Z,100.00
2023-05-05T02:45:10.829Z,100.00
2023-05-05T02:47:44.993Z,100.00
2023-05-05T02:50:19.666Z,100.00
2023-05-05T02:52:52.490Z,100.00
2023-05-05T02:55:25.965Z,100.00
2023-05-05T02:58:01.897Z,100.00
2023-05-05T03:00:37.692Z,100.00
2023-05-05T03:03:16.677Z,100.00
2023-05-05T03:05:52.579Z,100.00
2023-05-05T03:08:29.333Z,100.00
2023-05-05T03:11:06.011Z,100.00
2023-05-05T03:13:42.927Z,100.00
2023-05-05T03:16:17.234Z,100.00
2023-05-05T03:18:51.180Z,100.00
2023-05-05T03:21:25.458Z,100.00
2023-05-05T03:23:58.561Z,100.00
2023-05-05T03:26:31.415Z,100.00
2023-05-05T03:29:06.754Z,100.00
2023-05-05T03:31:39.600Z,100.00
2023-05-05T03:34:12.490Z,100.00
2023-05-05T03:36:46.721Z,100.00
2023-05-05T03:39:19.978Z,100.00
2023-05-05T03:41:52.776Z,100.00
2023-05-05T03:44:25.602Z,100.00
2023-05-05T03:46:58.367Z,100.00
2023-05-05T03:49:31.150Z,100.00
2023-05-05T03:52:05.533Z,100.00
2023-05-05T03:54:38.343Z,100.00
2023-05-05T03:57:11.460Z,100.00
2023-05-05T03:59:44.280Z,100.00
2023-05-05T04:02:18.610Z,100.00
2023-05-05T04:04:51.785Z,100.00
2023-05-05T04:07:26.196Z,100.00
2023-05-05T04:09:59.388Z,100.00
2023-05-05T04:12:32.222Z,100.00
2023-05-05T04:15:05.664Z,100.00
2023-05-05T04:17:38.990Z,100.00
2023-05-05T04:20:12.169Z,100.00
2023-05-05T04:22:46.535Z,100.00
2023-05-05T04:25:20.001Z,100.00
2023-05-05T04:27:53.138Z,100.00
2023-05-05T04:30:25.849Z,100.00
2023-05-05T04:32:58.752Z,100.00
2023-05-05T04:35:31.746Z,100.00
2023-05-05T04:38:06.071Z,100.00
2023-05-05T04:40:39.799Z,100.00
2023-05-05T04:43:12.936Z,100.00
2023-05-05T04:45:53.381Z,100.00
2023-05-05T04:48:26.291Z,100.00
2023-05-05T04:51:04.582Z,100.00
2023-05-05T04:53:38.761Z,100.00
2023-05-05T04:56:11.776Z,100.00
2023-05-05T04:58:44.940Z,100.00
2023-05-05T05:01:17.864Z,100.00
2023-05-05T05:03:51.089Z,100.00
2023-05-05T05:06:23.913Z,100.00
2023-05-05T05:08:58.176Z,100.00
2023-05-05T05:11:31.235Z,100.00
2023-05-05T05:14:04.139Z,100.00
2023-05-05T05:16:36.952Z,100.00
2023-05-05T05:19:09.788Z,100.00
2023-05-05T05:21:42.683Z,100.00
2023-05-05T05:24:17.278Z,100.00
2023-05-05T05:26:50.215Z,100.00
2023-05-05T05:29:23.030Z,100.00
2023-05-05T05:31:55.884Z,100.00
2023-05-05T05:34:28.847Z,100.00
2023-05-05T05:37:01.880Z,100.00
2023-05-05T05:39:36.560Z,100.00
2023-05-05T05:42:09.396Z,100.00
2023-05-05T05:44:42.179Z,100.00
2023-05-05T05:47:15.182Z,100.00
2023-05-05T05:49:48.029Z,100.00
2023-05-05T05:52:21.089Z,100.00
2023-05-05T05:54:55.854Z,100.00
2023-05-05T05:57:28.849Z,100.00
2023-05-05T06:00:02.321Z,100.00
2023-05-05T06:02:35.477Z,100.00
2023-05-05T06:05:08.658Z,100.00
2023-05-05T06:07:41.453Z,100.00
2023-05-05T06:10:27.493Z,100.00
2023-05-05T06:13:00.998Z,100.00
2023-05-05T06:15:33.886Z,100.00
2023-05-05T06:18:06.794Z,100.00
2023-05-05T06:20:39.565Z,100.00
2023-05-05T06:23:12.407Z,100.00
2023-05-05T06:25:46.819Z,100.00
2023-05-05T06:28:19.620Z,100.00
2023-05-05T06:30:52.893Z,100.00
2023-05-05T06:33:25.576Z,100.00
2023-05-05T06:35:59.157Z,100.00
2023-05-05T06:38:32.101Z,100.00
2023-05-05T06:41:06.721Z,100.00
2023-05-05T06:43:39.689Z,100.00
2023-05-05T06:46:12.793Z,100.00
2023-05-05T06:48:45.924Z,100.00
2023-05-05T06:51:18.934Z,100.00
2023-05-05T06:53:51.892Z,99.29
2023-05-05T06:56:26.207Z,98.87
2023-05-05T06:58:59.059Z,98.63
2023-05-05T07:01:31.921Z,97.89
2023-05-05T07:04:04.980Z,97.85
2023-05-05T07:06:37.908Z,97.54
2023-05-05T07:09:11.377Z,97.07
2023-05-05T07:11:45.988Z,95.75
2023-05-05T07:14:18.755Z,93.43
2023-05-05T07:16:51.850Z,93.19
2023-05-05T07:19:24.708Z,93.39
2023-05-05T07:21:57.687Z,91.47
2023-05-05T07:24:30.656Z,90.32
2023-05-05T07:27:05.060Z,90.17
2023-05-05T07:29:37.847Z,89.20
2023-05-05T07:32:11.117Z,89.93
2023-05-05T07:34:43.996Z,88.19
2023-05-05T07:37:16.974Z,88.85
2023-05-05T07:39:50.026Z,89.47
2023-05-05T07:42:24.506Z,89.72
2023-05-05T07:44:57.548Z,89.33
2023-05-05T07:47:31.223Z,88.84
2023-05-05T07:50:04.272Z,88.97
2023-05-05T07:52:45.026Z,89.65
2023-05-05T07:55:19.307Z,89.45
2023-05-05T07:57:53.808Z,89.99
2023-05-05T08:00:26.820Z,88.79
2023-05-05T08:03:00.464Z,89.49
2023-05-05T08:05:33.399Z,89.38
2023-05-05T08:08:07.044Z,88.86
2023-05-05T08:10:39.925Z,88.41
2023-05-05T08:13:14.195Z,89.26
2023-05-05T08:15:47.308Z,88.01
2023-05-05T08:18:20.369Z,88.24
2023-05-05T08:20:54.757Z,86.85
2023-05-05T08:23:27.684Z,86.94
2023-05-05T08:26:00.949Z,86.19
2023-05-05T08:28:36.501Z,84.67
2023-05-05T08:31:10.167Z,84.68
2023-05-05T08:33:43.166Z,84.02
2023-05-05T08:36:16.161Z,84.84
2023-05-05T08:38:48.972Z,84.29
2023-05-05T08:41:21.957Z,83.37
2023-05-05T08:43:56.470Z,81.98
2023-05-05T08:46:31.035Z,82.73
2023-05-05T08:49:06.562Z,83.47
2023-05-05T08:51:43.069Z,82.30
2023-05-05T08:54:16.906Z,83.35
2023-05-05T08:56:51.541Z,84.57
2023-05-05T08:59:28.507Z,82.82
2023-05-05T09:02:01.617Z,81.04
2023-05-05T09:04:35.536Z,81.23
2023-05-05T09:07:08.533Z,80.29
2023-05-05T09:09:41.445Z,80.28
2023-05-05T09:12:15.742Z,79.75
2023-05-05T09:14:50.113Z,78.41
2023-05-05T09:17:24.191Z,78.74
2023-05-05T09:20:05.115Z,80.07
2023-05-05T09:22:38.807Z,78.45
2023-05-05T09:25:12.355Z,78.20
2023-05-05T09:27:46.447Z,77.76
2023-05-05T09:30:27.118Z,79.08
2023-05-05T09:33:02.222Z,79.84
2023-05-05T09:35:51.719Z,80.42
2023-05-05T09:38:25.379Z,81.14
2023-05-05T09:40:58.357Z,81.99
2023-05-05T09:43:31.320Z,80.62
2023-05-05T09:46:08.884Z,78.46
2023-05-05T09:48:41.792Z,78.35
2023-05-05T09:51:14.554Z,79.70
2023-05-05T09:53:47.539Z,79.42
2023-05-05T09:56:21.985Z,79.55
2023-05-05T09:59:08.786Z,79.87
2023-05-05T10:01:43.914Z,80.25
2023-05-05T10:04:24.934Z,79.50
2023-05-05T10:06:58.385Z,79.71
2023-05-05T10:09:31.804Z,79.10
2023-05-05T10:12:06.063Z,77.60
2023-05-05T10:14:38.977Z,77.38
2023-05-05T10:17:13.363Z,78.41
2023-05-05T10:19:47.107Z,77.99
2023-05-05T10:22:23.482Z,79.10
2023-05-05T10:24:58.666Z,78.20
2023-05-05T10:27:35.271Z,77.85
2023-05-05T10:30:09.068Z,78.15
2023-05-05T10:35:22.675Z,77.46
2023-05-05T10:37:57.764Z,76.46
2023-05-05T10:40:31.302Z,77.17
2023-05-05T10:43:04.473Z,77.14
2023-05-05T10:45:38.076Z,76.42
2023-05-05T10:48:15.671Z,74.94
2023-05-05T10:50:51.585Z,75.98
2023-05-05T10:53:29.462Z,74.25
2023-05-05T10:56:05.506Z,74.96
2023-05-05T10:58:55.494Z,73.93
2023-05-05T11:01:33.294Z,73.98
2023-05-05T11:04:23.567Z,74.60
2023-05-05T11:07:15.993Z,74.08
2023-05-05T11:09:58.390Z,73.36
2023-05-05T11:12:31.545Z,72.79
2023-05-05T11:15:23.637Z,72.88
2023-05-05T11:17:57.425Z,73.39
2023-05-05T11:20:49.121Z,72.35
2023-05-05T11:23:26.776Z,73.24
2023-05-05T11:25:59.492Z,73.50
2023-05-05T11:28:32.386Z,74.10
2023-05-05T11:31:18.626Z,74.36
2023-05-05T11:33:51.653Z,74.76
2023-05-05T11:36:39.371Z,74.76
2023-05-05T11:39:24.156Z,74.84
2023-05-05T11:42:10.429Z,75.76
2023-05-05T11:44:44.151Z,76.13
2023-05-05T11:47:28.434Z,75.57
2023-05-05T11:50:21.736Z,76.39
2023-05-05T11:52:56.418Z,77.44
2023-05-05T11:55:30.715Z,77.30
2023-05-05T11:58:18.449Z,77.10
2023-05-05T12:00:51.482Z,76.98
2023-05-05T12:03:24.569Z,76.92
2023-05-05T12:05:57.591Z,76.06
2023-05-05T12:08:36.345Z,75.97
2023-05-05T12:11:11.725Z,76.35
2023-05-05T12:13:45.366Z,74.89
2023-05-05T12:16:20.020Z,74.52
2023-05-05T12:19:05.770Z,73.98
2023-05-05T12:21:39.457Z,73.03
2023-05-05T12:24:13.673Z,74.51
2023-05-05T12:26:48.110Z,73.65
2023-05-05T12:29:24.990Z,73.78
2023-05-05T12:31:58.127Z,73.39
2023-05-05T12:34:32.174Z,72.20
2023-05-05T12:37:05.673Z,72.09
2023-05-05T12:39:38.971Z,70.96
2023-05-05T12:42:13.184Z,71.26
2023-05-05T12:44:46.825Z,72.31
2023-05-05T12:47:30.966Z,71.94
2023-05-05T12:50:04.010Z,72.11
2023-05-05T12:52:42.436Z,72.44
2023-05-05T12:55:15.543Z,72.39
2023-05-05T12:58:04.724Z,72.86
2023-05-05T13:00:38.165Z,74.20
2023-05-05T13:03:19.833Z,75.03
2023-05-05T13:05:52.947Z,74.27
2023-05-05T13:08:40.663Z,74.22
2023-05-05T13:11:13.608Z,74.66
2023-05-05T13:13:48.016Z,75.54
2023-05-05T13:16:21.320Z,75.97
2023-05-05T13:18:54.343Z,76.09
2023-05-05T13:21:28.215Z,75.65
2023-05-05T13:24:18.932Z,76.56
2023-05-05T13:26:55.996Z,76.46
2023-05-05T13:29:31.629Z,77.15
2023-05-05T13:32:05.189Z,77.33
2023-05-05T13:34:39.320Z,76.17
2023-05-05T13:37:12.505Z,77.27
2023-05-05T13:39:45.327Z,76.92
2023-05-05T13:42:18.198Z,77.25
2023-05-05T13:44:52.689Z,77.76
2023-05-05T13:47:25.644Z,77.59
2023-05-05T13:49:58.666Z,77.57
2023-05-05T13:52:31.850Z,78.53
2023-05-05T13:55:07.273Z,77.84
2023-05-05T13:57:40.444Z,76.88
2023-05-05T14:00:16.117Z,77.05
2023-05-05T14:02:49.560Z,77.88
2023-05-05T14:05:23.370Z,76.98
2023-05-05T14:07:56.615Z,77.76
2023-05-05T14:10:31.214Z,78.12
2023-05-05T14:13:04.578Z,76.88
2023-05-05T14:15:39.014Z,75.73
2023-05-05T14:18:11.885Z,77.17
2023-05-05T14:20:45.096Z,75.38
2023-05-05T14:23:17.988Z,75.75
2023-05-05T14:25:51.171Z,76.94
2023-05-05T14:28:24.392Z,75.34
2023-05-05T14:30:58.726Z,76.73
2023-05-05T14:33:31.790Z,76.32
2023-05-05T14:36:04.836Z,75.74
2023-05-05T14:38:37.715Z,76.16
2023-05-05T14:41:10.924Z,75.71
2023-05-05T14:43:43.966Z,76.38
2023-05-05T14:46:19.110Z,75.47
2023-05-05T14:48:52.193Z,74.00
2023-05-05T14:51:25.132Z,75.70
2023-05-05T14:53:58.308Z,76.10
2023-05-05T14:56:31.349Z,74.69
2023-05-05T14:59:04.307Z,75.39
2023-05-05T15:01:38.515Z,75.29
2023-05-05T15:04:11.862Z,76.12
2023-05-05T15:06:45.913Z,75.40
2023-05-05T15:09:20.404Z,74.63
2023-05-05T15:11:53.296Z,75.78
2023-05-05T15:14:26.758Z,76.28
2023-05-05T15:17:01.160Z,76.33
2023-05-05T15:19:35.427Z,74.83
2023-05-05T15:22:08.646Z,76.08
2023-05-05T15:24:41.634Z,76.09
2023-05-05T15:27:14.556Z,74.72
2023-05-05T15:29:48.704Z,76.18
2023-05-05T15:32:23.059Z,75.25
2023-05-05T15:34:56.583Z,74.48
2023-05-05T15:37:32.953Z,74.84
2023-05-05T15:40:06.587Z,74.48
2023-05-05T15:42:39.465Z,75.23
2023-05-05T15:45:13.387Z,73.13
2023-05-05T15:47:48.284Z,72.87
2023-05-05T15:50:22.021Z,70.57
2023-05-05T15:52:57.122Z,71.46
2023-05-05T15:55:30.244Z,72.75
2023-05-05T15:58:03.198Z,71.36
2023-05-05T16:00:36.255Z,73.51
2023-05-05T16:03:10.728Z,72.48
2023-05-05T16:05:43.770Z,71.91
2023-05-05T16:08:17.074Z,73.07
2023-05-05T16:10:57.975Z,72.90
2023-05-05T16:13:31.388Z,74.07
2023-05-05T16:16:04.538Z,74.17
2023-05-05T16:18:40.387Z,73.88
2023-05-05T16:21:17.914Z,74.32
2023-05-05T16:23:51.027Z,75.30
2023-05-05T16:26:24.318Z,73.66
2023-05-05T16:28:58.363Z,73.93
2023-05-05T16:31:35.092Z,75.15
2023-05-05T16:34:10.473Z,73.99
2023-05-05T16:36:44.389Z,74.73
2023-05-05T16:39:17.766Z,74.14
2023-05-05T16:41:53.486Z,74.92
2023-05-05T16:44:26.861Z,73.58
2023-05-05T16:47:00.046Z,73.93
2023-05-05T16:49:34.523Z,76.66
2023-05-05T16:52:07.541Z,75.28
2023-05-05T16:54:40.649Z,75.18
2023-05-05T16:57:14.177Z,76.46
2023-05-05T16:59:50.027Z,74.88
2023-05-05T17:02:26.587Z,75.95
2023-05-05T17:05:01.491Z,76.30
2023-05-05T17:07:34.521Z,75.96
2023-05-05T17:10:12.774Z,75.58
2023-05-05T17:12:48.737Z,74.51
2023-05-05T17:15:22.371Z,75.88
2023-05-05T17:17:55.466Z,77.59
2023-05-05T17:20:31.607Z,75.21
2023-05-05T17:23:06.800Z,76.54
2023-05-05T17:25:45.081Z,74.83
2023-05-05T17:28:26.823Z,75.10
2023-05-05T17:31:00.327Z,75.15
2023-05-05T17:33:33.567Z,76.08
2023-05-05T17:36:08.510Z,75.24
2023-05-05T17:38:46.041Z,75.33
2023-05-05T17:41:21.979Z,76.74
2023-05-05T17:43:59.452Z,77.53
2023-05-05T17:46:32.925Z,75.84
2023-05-05T17:49:06.121Z,77.06
2023-05-05T17:51:41.564Z,76.42
2023-05-05T17:54:14.621Z,76.08
2023-05-05T17:56:50.163Z,76.74
2023-05-05T17:59:23.166Z,75.99
2023-05-05T18:01:56.130Z,75.63
2023-05-05T18:04:30.355Z,76.88
2023-05-05T18:07:05.577Z,75.71
2023-05-05T18:09:39.001Z,77.31
2023-05-05T18:12:13.917Z,77.45
2023-05-05T18:14:47.332Z,75.27
2023-05-05T18:17:21.468Z,75.88
2023-05-05T18:19:54.844Z,76.79
2023-05-05T18:22:31.983Z,76.40
2023-05-05T18:25:07.964Z,76.59
2023-05-05T18:27:47.903Z,76.73
2023-05-05T18:30:23.034Z,76.12
2023-05-05T18:32:56.251Z,77.49
2023-05-05T18:35:29.580Z,76.69
2023-05-05T18:38:08.661Z,75.91
2023-05-05T18:40:42.070Z,77.73
2023-05-05T18:43:17.573Z,77.95
2023-05-05T18:45:51.614Z,77.64
2023-05-05T18:48:34.834Z,77.58
2023-05-05T18:51:08.074Z,78.19
2023-05-05T18:53:42.741Z,77.53
2023-05-05T18:56:19.813Z,77.55
2023-05-05T18:58:52.810Z,77.27
2023-05-05T19:01:27.646Z,78.26
2023-05-05T19:04:01.061Z,76.94
2023-05-05T19:06:34.081Z,78.25
2023-05-05T19:09:08.813Z,78.31
2023-05-05T19:11:47.874Z,76.96
2023-05-05T19:14:21.235Z,76.36
2023-05-05T19:17:01.063Z,76.37
2023-05-05T19:19:35.860Z,78.21
2023-05-05T19:22:09.118Z,76.30
2023-05-05T19:24:44.472Z,77.74
2023-05-05T19:27:26.385Z,77.54
2023-05-05T19:29:59.574Z,76.57
2023-05-05T19:32:32.719Z,78.21
2023-05-05T19:35:09.260Z,76.34
2023-05-05T19:37:42.362Z,78.56
2023-05-05T19:40:18.260Z,78.43
2023-05-05T19:42:56.416Z,77.41
2023-05-05T19:45:33.658Z,78.20
2023-05-05T19:48:07.575Z,77.74
2023-05-05T19:50:43.416Z,79.40
2023-05-05T19:53:16.726Z,79.15
2023-05-05T19:55:53.145Z,79.49
2023-05-05T19:58:29.914Z,80.57
2023-05-05T20:01:02.968Z,79.23
2023-05-05T20:03:36.415Z,78.95
2023-05-05T20:06:09.695Z,79.76
2023-05-05T20:08:45.618Z,80.51
2023-05-05T20:11:22.713Z,78.41
2023-05-05T20:13:55.769Z,80.27
2023-05-05T20:16:33.957Z,77.96
2023-05-05T20:19:07.508Z,78.07
2023-05-05T20:21:40.505Z,78.34
2023-05-05T20:24:18.035Z,80.11
2023-05-05T20:26:55.351Z,77.30
2023-05-05T20:29:29.525Z,79.84
2023-05-05T20:32:12.717Z,77.72
2023-05-05T20:34:48.581Z,78.49
2023-05-05T20:37:22.507Z,78.15
2023-05-05T20:39:56.970Z,78.39
2023-05-05T20:42:36.322Z,80.22
2023-05-05T20:45:10.927Z,79.99
2023-05-05T20:47:48.974Z,78.55
2023-05-05T20:50:25.020Z,80.87
2023-05-05T20:53:02.794Z,79.03
2023-05-05T20:55:38.773Z,78.89
2023-05-05T20:58:13.466Z,80.70
2023-05-05T21:00:46.724Z,79.49
2023-05-05T21:03:20.091Z,79.58
2023-05-05T21:05:58.359Z,79.79
2023-05-05T21:08:37.327Z,79.21
2023-05-05T21:11:10.672Z,80.47
2023-05-05T21:13:48.609Z,79.06
2023-05-05T21:16:23.706Z,79.87
2023-05-05T21:19:02.597Z,80.43
2023-05-05T21:21:38.580Z,80.20
2023-05-05T21:24:13.134Z,79.70
2023-05-05T21:26:50.091Z,79.62
2023-05-05T21:29:33.482Z,81.41
2023-05-05T21:32:12.366Z,81.96
2023-05-05T21:34:48.647Z,80.96
2023-05-05T21:37:23.140Z,81.35
2023-05-05T21:39:59.124Z,83.03
2023-05-05T21:42:34.489Z,81.53
2023-05-05T21:45:12.738Z,82.29
2023-05-05T21:47:45.799Z,82.08
2023-05-05T21:50:20.506Z,83.29
2023-05-05T21:52:53.558Z,82.92
2023-05-05T21:55:26.765Z,83.08
2023-05-05T21:58:00.127Z,83.12
2023-05-05T22:00:35.148Z,82.91
2023-05-05T22:03:08.343Z,83.96
2023-05-05T22:05:41.721Z,83.35
2023-05-05T22:08:14.731Z,83.25
2023-05-05T22:10:47.947Z,83.40
2023-05-05T22:13:20.989Z,84.79
2023-05-05T22:15:55.330Z,84.81
2023-05-05T22:18:28.360Z,85.15
2023-05-05T22:21:01.983Z,85.86
2023-05-05T22:23:35.020Z,85.17
2023-05-05T22:26:08.122Z,86.22
2023-05-05T22:28:41.675Z,84.70
2023-05-05T22:31:16.068Z,85.19
2023-05-05T22:33:49.061Z,86.58
2023-05-05T22:36:22.039Z,87.29
2023-05-05T22:38:55.017Z,88.55
2023-05-05T22:41:27.993Z,88.74
2023-05-05T22:44:01.266Z,88.33
2023-05-05T22:46:35.637Z,89.08
2023-05-05T22:49:08.889Z,88.44
2023-05-05T22:51:41.902Z,89.53
2023-05-05T22:54:14.733Z,88.27
2023-05-05T22:56:47.550Z,88.53
2023-05-05T22:59:20.532Z,87.59
2023-05-05T23:01:54.760Z,88.75
2023-05-05T23:04:27.890Z,88.55
2023-05-05T23:07:01.313Z,88.38
2023-05-05T23:09:34.356Z,87.29
2023-05-05T23:12:07.378Z,86.72
2023-05-05T23:14:40.566Z,87.18
2023-05-05T23:17:14.679Z,87.71
2023-05-05T23:19:48.505Z,87.60
2023-05-05T23:22:21.560Z,88.24
2023-05-05T23:24:54.516Z,87.97
2023-05-05T23:27:27.369Z,87.54
2023-05-05T23:30:00.261Z,87.24
2023-05-05T23:32:34.531Z,87.17
2023-05-05T23:35:08.353Z,88.38
2023-05-05T23:37:41.414Z,88.89
2023-05-05T23:40:14.377Z,88.54
2023-05-05T23:42:47.478Z,88.56
2023-05-05T23:45:20.545Z,88.19
2023-05-05T23:47:55.054Z,87.47
2023-05-05T23:50:27.899Z,87.05
2023-05-05T23:53:01.062Z,88.14
2023-05-05T23:55:34.076Z,87.71
2023-05-05T23:58:06.928Z,87.78
